createdAt,value
2023-03-26T08:57:08.592Z,90.83
2023-03-26T08:58:39.587Z,90.68
2023-03-26T09:00:15.757Z,90.81
2023-03-26T09:01:50.522Z,91.01
2023-03-26T09:03:03.697Z,90.68
2023-03-26T09:04:23.015Z,90.61
2023-03-26T09:06:11.533Z,90.68
2023-03-26T09:07:29.139Z,90.00
2023-03-26T09:08:59.260Z,89.73
2023-03-26T09:10:29.323Z,89.60
2023-03-26T09:11:42.966Z,89.00
2023-03-26T09:13:10.886Z,88.81
2023-03-26T09:14:17.472Z,88.92
2023-03-26T09:15:37.551Z,88.48
2023-03-26T09:16:55.191Z,88.71
2023-03-26T09:18:08.953Z,88.26
2023-03-26T09:19:22.166Z,87.59
2023-03-26T09:20:30.859Z,86.32
2023-03-26T09:21:43.788Z,86.21
2023-03-26T09:23:14.019Z,85.63
2023-03-26T09:24:35.431Z,85.76
2023-03-26T09:25:56.379Z,86.46
2023-03-26T09:26:51.393Z,84.92
2023-03-26T09:28:07.700Z,85.11
2023-03-26T09:29:02.222Z,85.17
2023-03-26T09:30:17.507Z,84.63
2023-03-26T09:31:46.689Z,85.41
2023-03-26T09:32:59.362Z,85.75
2023-03-26T09:34:00.196Z,85.58
2023-03-26T09:35:01.496Z,85.75
2023-03-26T09:36:14.686Z,85.69
2023-03-26T09:37:24.657Z,84.12
2023-03-26T09:38:40.367Z,84.88
2023-03-26T09:40:18.833Z,84.89
2023-03-26T09:41:22.859Z,84.50
2023-03-26T09:42:41.240Z,84.42
2023-03-26T09:43:54.560Z,83.36
2023-03-26T09:45:09.163Z,82.85
2023-03-26T09:46:26.503Z,82.37
2023-03-26T09:47:29.978Z,82.09
2023-03-26T09:48:57.799Z,82.53
2023-03-26T09:50:02.853Z,82.69
2023-03-26T09:51:03.487Z,82.99
2023-03-26T09:52:05.772Z,82.90
2023-03-26T09:53:20.717Z,83.02
2023-03-26T09:54:44.126Z,82.95
2023-03-26T09:55:54.200Z,83.01
2023-03-26T09:57:03.360Z,82.80
2023-03-26T09:57:58.345Z,83.16
2023-03-26T09:59:09.636Z,83.62
2023-03-26T10:00:22.684Z,83.89
2023-03-26T10:01:38.413Z,83.32
2023-03-26T10:02:46.265Z,83.56
2023-03-26T10:03:48.105Z,83.66
2023-03-26T10:05:10.348Z,84.25
2023-03-26T10:06:11.850Z,84.21
2023-03-26T10:07:12.606Z,83.77
2023-03-26T10:08:37.863Z,83.83
2023-03-26T10:09:51.140Z,83.23
2023-03-26T10:11:07.005Z,82.57
2023-03-26T10:12:32.541Z,82.34
2023-03-26T10:13:47.327Z,82.19
2023-03-26T10:14:45.210Z,81.40
2023-03-26T10:15:54.093Z,81.15
2023-03-26T10:17:07.077Z,81.00
2023-03-26T10:18:27.600Z,80.83
2023-03-26T10:19:39.309Z,81.27
2023-03-26T10:20:56.183Z,80.37
2023-03-26T10:22:04.760Z,80.86
2023-03-26T10:22:56.084Z,80.33
2023-03-26T10:23:59.605Z,80.28
2023-03-26T10:25:05.543Z,80.00
2023-03-26T10:26:24.709Z,79.91
2023-03-26T10:27:55.994Z,79.97
2023-03-26T10:29:20.531Z,80.58
2023-03-26T10:30:18.166Z,80.87
2023-03-26T10:31:28.269Z,79.57
2023-03-26T10:32:38.160Z,80.78
2023-03-26T10:33:45.340Z,79.82
2023-03-26T10:35:01.516Z,79.17
2023-03-26T10:36:23.180Z,79.98
2023-03-26T10:37:27.837Z,79.47
2023-03-26T10:38:51.725Z,79.68
2023-03-26T10:40:07.888Z,79.11
2023-03-26T10:41:12.536Z,79.51
2023-03-26T10:42:28.559Z,79.29
2023-03-26T10:43:38.257Z,79.38
2023-03-26T10:44:54.434Z,79.68
2023-03-26T10:46:09.987Z,80.05
2023-03-26T10:47:38.926Z,79.15
2023-03-26T10:48:55.673Z,79.65
2023-03-26T10:50:22.924Z,80.79
2023-03-26T10:51:34.830Z,81.21
2023-03-26T10:52:38.902Z,79.99
2023-03-26T10:53:48.704Z,79.15
2023-03-26T10:54:40.136Z,79.21
2023-03-26T10:55:39.297Z,79.95
2023-03-26T10:56:49.686Z,80.69
2023-03-26T10:57:48.868Z,80.89
2023-03-26T10:58:48.757Z,80.12
2023-03-26T10:59:42.043Z,80.17
2023-03-26T11:00:42.278Z,80.70
2023-03-26T11:01:51.500Z,81.57
2023-03-26T11:03:10.081Z,80.40
2023-03-26T11:04:20.123Z,78.78
2023-03-26T11:05:38.601Z,78.74
2023-03-26T11:06:45.321Z,79.70
2023-03-26T11:07:55.950Z,78.00
2023-03-26T11:08:53.295Z,79.19
2023-03-26T11:10:02.253Z,79.58
2023-03-26T11:11:01.650Z,79.39
2023-03-26T11:12:27.889Z,76.29
2023-03-26T11:13:29.743Z,77.73
2023-03-26T11:14:51.918Z,75.86
2023-03-26T11:15:55.704Z,76.15
2023-03-26T11:17:06.128Z,76.27
2023-03-26T11:18:16.471Z,75.94
2023-03-26T11:19:23.225Z,76.85
2023-03-26T11:20:24.471Z,76.77
2023-03-26T11:21:35.963Z,76.80
2023-03-26T11:22:43.893Z,77.09
2023-03-26T11:24:04.731Z,76.10
2023-03-26T11:25:26.453Z,76.91
2023-03-26T11:26:34.077Z,76.79
2023-03-26T11:27:26.572Z,75.52
2023-03-26T11:28:28.531Z,76.27
2023-03-26T11:29:45.615Z,75.62
2023-03-26T11:30:43.906Z,75.81
2023-03-26T11:31:53.884Z,74.87
2023-03-26T11:32:54.575Z,76.06
2023-03-26T11:33:56.448Z,76.89
2023-03-26T11:34:53.709Z,77.28
2023-03-26T11:35:52.636Z,77.13
2023-03-26T11:36:53.593Z,77.11
2023-03-26T11:37:54.284Z,78.43
2023-03-26T11:38:50.049Z,78.42
2023-03-26T11:39:58.291Z,79.03
2023-03-26T11:40:55.422Z,74.57
2023-03-26T11:42:22.008Z,75.49
2023-03-26T11:43:17.080Z,75.72
2023-03-26T11:44:23.347Z,75.94
2023-03-26T11:45:21.954Z,75.37
2023-03-26T11:46:20.857Z,76.11
2023-03-26T11:47:18.783Z,77.31
2023-03-26T11:48:29.020Z,76.74
2023-03-26T11:49:22.897Z,76.69
2023-03-26T11:50:30.377Z,76.98
2023-03-26T11:51:33.808Z,77.08
2023-03-26T11:52:26.659Z,77.31
2023-03-26T11:53:22.064Z,77.85
2023-03-26T11:54:13.911Z,77.48
2023-03-26T11:55:06.552Z,77.25
2023-03-26T11:56:04.128Z,76.67
2023-03-26T11:57:06.473Z,76.11
2023-03-26T11:58:01.396Z,76.58
2023-03-26T11:59:05.348Z,77.45
2023-03-26T12:00:21.036Z,78.37
2023-03-26T12:01:31.162Z,79.10
2023-03-26T12:02:35.569Z,78.70
2023-03-26T12:03:30.208Z,78.98
2023-03-26T12:04:35.394Z,79.52
2023-03-26T12:05:33.330Z,79.92
2023-03-26T12:06:28.750Z,78.61
2023-03-26T12:07:31.898Z,78.85
2023-03-26T12:08:43.591Z,80.25
2023-03-26T12:10:18.446Z,80.46
2023-03-26T12:11:12.454Z,81.14
2023-03-26T12:12:06.097Z,80.22
2023-03-26T12:13:02.848Z,79.10
2023-03-26T12:14:05.652Z,78.39
2023-03-26T12:14:58.878Z,78.36
2023-03-26T12:15:50.726Z,78.22
2023-03-26T12:16:59.693Z,78.03
2023-03-26T12:17:56.255Z,77.91
2023-03-26T12:19:05.326Z,77.98
2023-03-26T12:19:57.048Z,78.06
2023-03-26T12:20:49.361Z,78.62
2023-03-26T12:21:52.309Z,78.95
2023-03-26T12:22:47.823Z,78.71
2023-03-26T12:23:44.307Z,78.92
2023-03-26T12:24:36.299Z,78.43
2023-03-26T12:25:29.276Z,78.04
2023-03-26T12:26:34.105Z,77.35
2023-03-26T12:27:31.019Z,77.00
2023-03-26T12:28:23.323Z,77.52
2023-03-26T12:29:18.708Z,76.84
2023-03-26T12:30:19.958Z,77.05
2023-03-26T12:31:18.155Z,76.49
2023-03-26T12:32:14.471Z,75.82
2023-03-26T12:33:16.351Z,75.98
2023-03-26T12:34:17.516Z,74.52
2023-03-26T12:35:30.641Z,74.76
2023-03-26T12:36:33.128Z,75.40
2023-03-26T12:37:39.444Z,75.42
2023-03-26T12:38:37.706Z,74.78
2023-03-26T12:40:10.169Z,75.97
2023-03-26T12:40:46.781Z,75.19
2023-03-26T12:44:42.158Z,75.23
2023-03-26T12:44:46.701Z,75.47
2023-03-26T12:44:48.637Z,73.95
2023-03-26T12:45:40.666Z,72.74
2023-03-26T12:47:57.074Z,72.51
2023-03-26T12:48:00.104Z,71.40
2023-03-26T12:48:59.898Z,71.10
2023-03-26T12:49:53.498Z,70.90
2023-03-26T12:50:57.450Z,72.29
2023-03-26T12:52:15.551Z,73.47
2023-03-26T12:53:56.572Z,71.69
2023-03-26T12:55:11.888Z,69.86
2023-03-26T12:56:19.753Z,72.23
2023-03-26T12:57:26.702Z,73.62
2023-03-26T12:58:28.403Z,73.32
2023-03-26T13:00:08.690Z,71.64
2023-03-26T13:01:26.369Z,72.75
2023-03-26T13:02:44.376Z,70.64
2023-03-26T13:03:59.418Z,71.94
2023-03-26T13:05:09.334Z,71.62
2023-03-26T13:06:19.282Z,72.16
2023-03-26T13:07:16.696Z,70.71
2023-03-26T13:08:14.352Z,71.28
2023-03-26T13:09:33.225Z,72.13
2023-03-26T13:10:50.300Z,70.68
2023-03-26T13:12:03.184Z,71.84
2023-03-26T13:13:16.829Z,70.47
2023-03-26T13:14:30.499Z,72.40
2023-03-26T13:15:46.884Z,73.28
2023-03-26T13:16:52.550Z,73.24
2023-03-26T13:18:04.409Z,72.22
2023-03-26T13:19:01.562Z,72.80
2023-03-26T13:19:52.978Z,71.79
2023-03-26T13:21:08.884Z,73.32
2023-03-26T13:22:19.230Z,73.98
2023-03-26T13:23:23.261Z,74.65
2023-03-26T13:24:42.303Z,75.14
2023-03-26T13:26:00.109Z,75.93
2023-03-26T13:27:16.952Z,76.82
2023-03-26T13:28:40.374Z,76.74
2023-03-26T13:29:46.272Z,75.73
2023-03-26T13:30:50.704Z,75.02
2023-03-26T13:32:02.088Z,74.84
2023-03-26T13:33:30.257Z,77.47
2023-03-26T13:34:46.586Z,78.43
2023-03-26T13:36:21.730Z,76.96
2023-03-26T13:37:30.813Z,77.31
2023-03-26T13:39:04.608Z,78.28
2023-03-26T13:40:03.523Z,78.56
2023-03-26T13:41:09.447Z,78.04
2023-03-26T13:42:18.555Z,76.92
2023-03-26T13:43:51.101Z,73.73
2023-03-26T13:45:04.821Z,74.41
2023-03-26T13:46:12.830Z,73.17
2023-03-26T13:47:44.895Z,73.82
2023-03-26T13:49:19.793Z,74.14
2023-03-26T13:50:28.708Z,73.74
2023-03-26T13:51:40.883Z,75.49
2023-03-26T13:52:44.094Z,75.09
2023-03-26T13:54:05.212Z,75.06
2023-03-26T13:55:15.612Z,73.86
2023-03-26T13:56:15.622Z,75.44
2023-03-26T13:57:24.970Z,73.90
2023-03-26T13:58:36.275Z,74.12
2023-03-26T13:59:54.593Z,73.83
2023-03-26T14:00:56.008Z,73.99
2023-03-26T14:02:00.196Z,75.09
2023-03-26T14:03:23.798Z,75.47
2023-03-26T14:04:23.572Z,73.59
2023-03-26T14:05:30.630Z,74.23
2023-03-26T14:06:46.631Z,74.11
2023-03-26T14:08:11.519Z,73.18
2023-03-26T14:09:17.742Z,72.01
2023-03-26T14:10:30.599Z,72.04
2023-03-26T14:11:51.427Z,69.48
2023-03-26T14:12:56.258Z,69.63
2023-03-26T14:13:52.392Z,70.79
2023-03-26T14:14:56.066Z,71.23
2023-03-26T14:15:57.803Z,71.15
2023-03-26T14:16:59.085Z,70.82
2023-03-26T14:18:00.335Z,71.07
2023-03-26T14:19:33.888Z,71.58
2023-03-26T14:20:56.574Z,69.68
2023-03-26T14:22:24.910Z,69.90
2023-03-26T14:23:35.023Z,71.01
2023-03-26T14:24:51.594Z,69.91
2023-03-26T14:26:10.390Z,70.85
2023-03-26T14:27:20.208Z,70.41
2023-03-26T14:28:28.747Z,70.04
2023-03-26T14:29:38.420Z,69.06
2023-03-26T14:31:05.914Z,69.58
2023-03-26T14:32:42.357Z,69.93
2023-03-26T14:33:53.553Z,71.28
2023-03-26T14:34:55.043Z,71.78
2023-03-26T14:35:55.392Z,70.95
2023-03-26T14:37:27.397Z,71.11
2023-03-26T14:38:41.886Z,70.64
2023-03-26T14:39:52.092Z,69.86
2023-03-26T14:41:13.433Z,70.04
2023-03-26T14:42:24.451Z,69.13
2023-03-26T14:43:36.615Z,70.54
2023-03-26T14:44:48.142Z,69.42
2023-03-26T14:45:49.975Z,69.99
2023-03-26T14:46:50.696Z,69.22
2023-03-26T14:48:11.623Z,69.54
2023-03-26T14:49:03.097Z,70.11
2023-03-26T14:50:08.338Z,69.97
2023-03-26T14:51:15.380Z,69.75
2023-03-26T14:52:24.913Z,68.50
2023-03-26T14:53:29.671Z,68.89
2023-03-26T14:54:27.890Z,69.46
2023-03-26T14:55:35.268Z,69.86
2023-03-26T14:56:29.945Z,69.88
2023-03-26T14:57:47.292Z,69.21
2023-03-26T14:59:24.679Z,69.47
2023-03-26T15:00:32.815Z,69.07
2023-03-26T15:01:40.278Z,69.94
2023-03-26T15:03:04.032Z,70.10
2023-03-26T15:04:01.451Z,68.73
2023-03-26T15:05:30.549Z,68.94
2023-03-26T15:06:40.417Z,69.01
2023-03-26T15:07:52.571Z,69.85
2023-03-26T15:09:09.824Z,69.19
2023-03-26T15:10:21.446Z,70.14
2023-03-26T15:11:51.778Z,69.87
2023-03-26T15:12:53.233Z,70.16
2023-03-26T15:13:54.742Z,71.52
2023-03-26T15:15:05.221Z,70.80
2023-03-26T15:16:12.692Z,70.44
2023-03-26T15:17:54.677Z,70.68
2023-03-26T15:19:13.073Z,70.91
2023-03-26T15:20:26.321Z,71.98
2023-03-26T15:21:55.690Z,71.00
2023-03-26T15:23:05.983Z,70.60
2023-03-26T15:24:36.788Z,72.17
2023-03-26T15:25:53.298Z,69.73
2023-03-26T15:27:22.691Z,69.50
2023-03-26T15:28:16.820Z,69.94
2023-03-26T15:29:39.104Z,67.88
2023-03-26T15:31:13.762Z,69.52
2023-03-26T15:32:30.112Z,69.19
2023-03-26T15:33:43.868Z,69.29
2023-03-26T15:35:06.066Z,69.91
2023-03-26T15:36:26.242Z,71.07
2023-03-26T15:37:46.232Z,71.79
2023-03-26T15:39:03.552Z,72.06
2023-03-26T15:40:16.407Z,72.16
2023-03-26T15:41:32.328Z,73.12
2023-03-26T15:42:56.058Z,72.18
2023-03-26T15:44:23.892Z,71.82
2023-03-26T15:45:33.862Z,72.25
2023-03-26T15:46:37.831Z,70.82
2023-03-26T15:48:03.647Z,71.32
2023-03-26T15:49:24.653Z,72.36
2023-03-26T15:51:27.891Z,71.40
2023-03-26T15:52:36.280Z,73.32
2023-03-26T15:53:53.835Z,71.68
2023-03-26T15:54:59.477Z,71.24
2023-03-26T15:56:16.210Z,71.99
2023-03-26T15:57:32.446Z,71.25
2023-03-26T15:59:01.979Z,70.42
2023-03-26T16:00:15.069Z,70.21
2023-03-26T16:01:35.466Z,69.79
2023-03-26T16:02:43.334Z,70.38
2023-03-26T16:03:54.473Z,70.79
2023-03-26T16:04:55.206Z,71.81
2023-03-26T16:06:11.288Z,71.54
2023-03-26T16:07:13.280Z,71.54
2023-03-26T16:08:26.093Z,71.98
2023-03-26T16:09:34.062Z,72.22
2023-03-26T16:10:41.903Z,71.13
2023-03-26T16:11:42.755Z,70.84
2023-03-26T16:12:55.856Z,70.28
2023-03-26T16:14:17.958Z,70.41
2023-03-26T16:15:25.841Z,71.12
2023-03-26T16:16:22.810Z,70.42
2023-03-26T16:17:20.792Z,70.44
2023-03-26T16:18:15.413Z,70.98
2023-03-26T16:19:19.521Z,71.30
2023-03-26T16:20:31.109Z,71.70
2023-03-26T16:21:32.858Z,71.19
2023-03-26T16:22:55.971Z,71.79
2023-03-26T16:23:48.172Z,72.66
2023-03-26T16:25:28.644Z,71.82
2023-03-26T16:26:49.731Z,71.67
2023-03-26T16:27:41.829Z,72.45
2023-03-26T16:29:04.571Z,71.49
2023-03-26T16:30:14.518Z,71.79
2023-03-26T16:31:23.623Z,71.95
2023-03-26T16:32:48.641Z,71.78
2023-03-26T16:34:05.712Z,71.34
2023-03-26T16:35:36.871Z,71.40
2023-03-26T16:36:35.633Z,71.63
2023-03-26T16:37:36.248Z,71.43
2023-03-26T16:38:50.288Z,70.69
2023-03-26T16:39:44.401Z,70.63
2023-03-26T16:41:00.275Z,71.43
2023-03-26T16:42:06.401Z,71.93
2023-03-26T16:43:17.232Z,72.60
2023-03-26T16:44:25.767Z,71.75
2023-03-26T16:45:34.414Z,71.60
2023-03-26T16:47:03.961Z,72.19
2023-03-26T16:47:55.474Z,71.61
2023-03-26T16:48:56.484Z,72.33
2023-03-26T16:50:08.737Z,72.56
2023-03-26T16:51:36.718Z,72.21
2023-03-26T16:52:44.050Z,72.51
2023-03-26T16:53:45.898Z,72.58
2023-03-26T16:55:03.786Z,72.76
2023-03-26T16:56:22.268Z,72.42
2023-03-26T16:57:43.624Z,72.21
2023-03-26T16:58:56.121Z,72.93
2023-03-26T17:00:13.805Z,73.08
2023-03-26T17:01:56.314Z,73.34
2023-03-26T17:02:54.092Z,73.77
2023-03-26T17:03:58.669Z,73.20
2023-03-26T17:05:20.961Z,73.29
2023-03-26T17:06:33.765Z,73.48
2023-03-26T17:07:48.041Z,73.42
2023-03-26T17:09:07.815Z,73.42
2023-03-26T17:10:31.724Z,74.04
2023-03-26T17:12:00.024Z,73.78
2023-03-26T17:13:17.247Z,74.35
2023-03-26T17:14:25.606Z,74.50
2023-03-26T17:15:32.275Z,74.33
2023-03-26T17:16:46.026Z,74.66
2023-03-26T17:17:59.177Z,75.04
2023-03-26T17:19:13.324Z,74.85
2023-03-26T17:20:32.749Z,73.21
2023-03-26T17:21:53.685Z,72.70
2023-03-26T17:22:52.058Z,73.20
2023-03-26T17:24:16.282Z,73.21
2023-03-26T17:25:29.730Z,74.03
2023-03-26T17:26:46.959Z,74.23
2023-03-26T17:27:44.821Z,74.39
2023-03-26T17:28:55.044Z,74.74
2023-03-26T17:30:21.776Z,73.93
2023-03-26T17:31:37.600Z,74.44
2023-03-26T17:33:06.332Z,74.85
2023-03-26T17:34:36.430Z,75.91
2023-03-26T17:35:41.953Z,74.21
2023-03-26T17:36:43.683Z,74.80
2023-03-26T17:37:43.580Z,75.06
2023-03-26T17:38:45.286Z,75.38
2023-03-26T17:39:43.682Z,74.98
2023-03-26T17:40:49.226Z,75.05
2023-03-26T17:41:55.386Z,75.27
2023-03-26T17:43:09.624Z,76.09
2023-03-26T17:44:39.708Z,75.24
2023-03-26T17:45:37.386Z,75.55
2023-03-26T17:46:39.546Z,75.79
2023-03-26T17:47:56.463Z,76.16
2023-03-26T17:48:58.077Z,76.14
2023-03-26T17:50:00.657Z,75.89
2023-03-26T17:51:31.534Z,76.23
2023-03-26T17:52:48.079Z,76.25
2023-03-26T17:53:41.420Z,76.83
2023-03-26T17:54:41.087Z,76.98
2023-03-26T17:55:38.059Z,76.79
2023-03-26T17:56:32.401Z,76.82
2023-03-26T17:57:43.465Z,76.40
2023-03-26T17:58:39.721Z,76.14
2023-03-26T17:59:32.715Z,76.87
2023-03-26T18:00:31.612Z,76.70
2023-03-26T18:01:37.022Z,76.37
2023-03-26T18:02:42.130Z,77.36
2023-03-26T18:03:54.381Z,76.73
2023-03-26T18:04:52.730Z,76.63
2023-03-26T18:05:47.094Z,76.88
2023-03-26T18:06:58.486Z,77.19
2023-03-26T18:07:52.951Z,76.54
2023-03-26T18:08:58.300Z,76.56
2023-03-26T18:10:09.555Z,76.62
2023-03-26T18:11:25.754Z,76.63
2023-03-26T18:12:41.995Z,76.80
2023-03-26T18:14:08.491Z,77.14
2023-03-26T18:15:14.927Z,77.22
2023-03-26T18:16:16.744Z,77.05
2023-03-26T18:17:08.594Z,77.17
2023-03-26T18:18:18.158Z,76.50
2023-03-26T18:19:18.896Z,76.64
2023-03-26T18:20:20.965Z,76.36
2023-03-26T18:21:30.061Z,75.44
2023-03-26T18:22:30.325Z,75.68
2023-03-26T18:23:44.175Z,76.08
2023-03-26T18:24:40.169Z,76.49
2023-03-26T18:25:33.936Z,76.43
2023-03-26T18:26:40.174Z,76.01
2023-03-26T18:27:41.027Z,75.91
2023-03-26T18:28:40.657Z,76.27
2023-03-26T18:29:35.545Z,76.57
2023-03-26T18:30:27.222Z,76.38
2023-03-26T18:31:23.430Z,76.58
2023-03-26T18:32:22.180Z,75.73
2023-03-26T18:33:15.678Z,76.09
2023-03-26T18:34:20.265Z,76.41
2023-03-26T18:35:20.147Z,76.40
2023-03-26T18:36:13.613Z,76.12
2023-03-26T18:37:08.369Z,76.35
2023-03-26T18:38:00.928Z,75.91
2023-03-26T18:38:58.213Z,75.35
2023-03-26T18:40:21.368Z,75.37
2023-03-26T18:41:27.383Z,74.77
2023-03-26T18:42:25.278Z,74.68
2023-03-26T18:43:32.539Z,74.94
2023-03-26T18:44:28.371Z,75.07
2023-03-26T18:45:33.721Z,74.84
2023-03-26T18:46:25.666Z,74.85
2023-03-26T18:47:18.601Z,74.67
2023-03-26T18:48:19.006Z,74.41
2023-03-26T18:49:16.562Z,73.85
2023-03-26T18:50:17.145Z,74.43
2023-03-26T18:51:09.746Z,74.37
2023-03-26T18:52:01.598Z,74.37
2023-03-26T18:52:58.904Z,74.71
2023-03-26T18:53:56.747Z,74.45
2023-03-26T18:54:52.611Z,74.62
2023-03-26T18:55:44.686Z,73.63
2023-03-26T18:56:39.216Z,74.34
2023-03-26T18:57:31.422Z,73.85
2023-03-26T18:58:39.347Z,73.66
2023-03-26T18:59:41.034Z,73.32
2023-03-26T19:00:33.534Z,73.59
2023-03-26T19:01:31.867Z,73.65
2023-03-26T19:02:26.151Z,73.85
2023-03-26T19:03:22.447Z,73.77
2023-03-26T19:04:17.630Z,74.16
2023-03-26T19:05:15.437Z,74.21
2023-03-26T19:06:11.392Z,74.16
2023-03-26T19:07:09.912Z,72.75
2023-03-26T19:08:06.531Z,73.38
2023-03-26T19:08:59.179Z,73.14
2023-03-26T19:09:56.071Z,72.98
2023-03-26T19:10:50.720Z,73.65
2023-03-26T19:11:43.086Z,73.47
2023-03-26T19:12:35.722Z,73.41
2023-03-26T19:13:28.405Z,73.86
2023-03-26T19:14:20.404Z,74.38
2023-03-26T19:15:16.941Z,73.65
2023-03-26T19:16:22.717Z,74.70
2023-03-26T19:17:14.283Z,74.73
2023-03-26T19:18:13.961Z,75.15
2023-03-26T19:19:07.925Z,74.91
2023-03-26T19:20:02.832Z,74.96
2023-03-26T19:20:59.330Z,74.54
2023-03-26T19:21:51.948Z,74.81
2023-03-26T19:22:46.336Z,74.33
2023-03-26T19:23:41.992Z,74.80
2023-03-26T19:24:34.665Z,74.70
2023-03-26T19:25:42.007Z,74.84
2023-03-26T19:26:36.656Z,74.88
2023-03-26T19:27:29.299Z,72.41
2023-03-26T19:28:27.925Z,72.76
2023-03-26T19:29:28.732Z,72.31
2023-03-26T19:30:31.721Z,72.66
2023-03-26T19:31:34.347Z,72.53
2023-03-26T19:32:32.706Z,72.22
2023-03-26T19:33:34.075Z,72.06
2023-03-26T19:34:35.292Z,72.24
2023-03-26T19:35:27.122Z,72.80
2023-03-26T19:36:30.318Z,71.53
2023-03-26T19:37:25.185Z,72.13
2023-03-26T19:38:29.365Z,72.39
2023-03-26T19:40:34.709Z,71.60
2023-03-26T19:41:40.962Z,71.44
2023-03-26T19:42:43.233Z,70.15
2023-03-26T19:43:36.156Z,71.01
2023-03-26T19:44:30.232Z,71.28
2023-03-26T19:45:23.098Z,70.38
2023-03-26T19:46:15.130Z,70.87
2023-03-26T19:47:17.141Z,70.14
2023-03-26T19:48:15.601Z,69.55
2023-03-26T19:49:07.466Z,69.40
2023-03-26T19:50:03.776Z,68.97
2023-03-26T19:51:04.663Z,68.85
2023-03-26T19:51:18.056Z,72.18
2023-03-26T19:52:16.080Z,69.23
2023-03-26T19:53:21.717Z,69.27
2023-03-26T19:54:16.621Z,68.91
2023-03-26T19:55:10.037Z,68.15
2023-03-26T19:56:13.566Z,67.59
2023-03-26T19:57:05.458Z,67.05
2023-03-26T19:57:57.674Z,66.92
2023-03-26T19:58:52.407Z,67.17
2023-03-26T19:59:43.844Z,66.80
2023-03-26T20:00:42.298Z,66.40
2023-03-26T20:01:34.076Z,66.89
2023-03-26T20:02:26.833Z,66.44
2023-03-26T20:03:27.269Z,65.90
2023-03-26T20:04:18.821Z,66.26
2023-03-26T20:05:22.876Z,67.30
2023-03-26T20:06:23.712Z,66.21
2023-03-26T20:07:35.716Z,66.22
2023-03-26T20:08:27.982Z,66.01
2023-03-26T20:09:19.551Z,66.26
2023-03-26T20:10:12.246Z,66.37
2023-03-26T20:11:03.888Z,66.58
2023-03-26T20:11:55.563Z,66.41
2023-03-26T20:12:46.982Z,66.46
2023-03-26T20:13:38.459Z,65.51
2023-03-26T20:14:32.375Z,66.41
2023-03-26T20:15:32.965Z,66.14
2023-03-26T20:16:30.166Z,66.18
2023-03-26T20:17:22.270Z,66.18
2023-03-26T20:18:14.049Z,66.65
2023-03-26T20:19:05.649Z,66.44
2023-03-26T20:19:57.054Z,66.68
2023-03-26T20:20:48.538Z,67.27
2023-03-26T20:21:41.176Z,66.22
2023-03-26T20:22:32.632Z,66.67
2023-03-26T20:23:25.620Z,66.43
2023-03-26T20:24:18.751Z,66.37
2023-03-26T20:26:15.770Z,66.56
2023-03-26T20:27:07.538Z,66.29
2023-03-26T20:27:59.252Z,66.74
2023-03-26T20:28:53.520Z,67.40
2023-03-26T20:29:45.823Z,66.99
2023-03-26T20:30:38.118Z,67.04
2023-03-26T20:31:29.993Z,67.23
2023-03-26T20:32:26.407Z,67.59
2023-03-26T20:33:25.516Z,68.19
2023-03-26T20:34:23.652Z,67.83
2023-03-26T20:35:36.015Z,68.17
2023-03-26T20:36:33.307Z,68.34
2023-03-26T20:37:26.338Z,68.22
2023-03-26T20:38:19.867Z,68.33
2023-03-26T20:39:13.281Z,68.24
2023-03-26T20:40:07.217Z,67.86
2023-03-26T20:40:59.509Z,68.89
2023-03-26T20:41:54.044Z,68.23
2023-03-26T20:42:46.039Z,68.05
2023-03-26T20:43:37.466Z,67.80
2023-03-26T20:44:29.229Z,67.77
2023-03-26T20:45:22.678Z,68.38
2023-03-26T20:46:20.025Z,68.65
2023-03-26T20:47:12.582Z,68.63
2023-03-26T20:48:04.289Z,68.13
2023-03-26T20:48:57.044Z,67.64
2023-03-26T20:49:48.736Z,67.36
2023-03-26T20:50:50.327Z,67.45
2023-03-26T20:51:43.850Z,67.77
2023-03-26T20:52:35.442Z,68.22
2023-03-26T20:53:28.029Z,68.27
2023-03-26T20:54:25.104Z,67.95
2023-03-26T20:55:21.614Z,68.01
2023-03-26T20:56:16.878Z,68.61
2023-03-26T20:57:13.429Z,68.65
2023-03-26T20:58:05.182Z,68.00
2023-03-26T20:59:09.712Z,67.96
2023-03-26T21:00:02.282Z,68.01
2023-03-26T21:00:55.380Z,68.01
2023-03-26T21:01:48.601Z,68.09
2023-03-26T21:02:42.036Z,68.65
2023-03-26T21:03:34.747Z,68.58
2023-03-26T21:04:27.232Z,68.60
2023-03-26T21:05:24.177Z,67.93
2023-03-26T21:06:15.619Z,68.22
2023-03-26T21:07:17.563Z,68.32
2023-03-26T21:08:18.094Z,68.60
2023-03-26T21:09:15.094Z,67.54
2023-03-26T21:10:07.418Z,67.94
2023-03-26T21:11:02.119Z,67.39
2023-03-26T21:12:07.893Z,68.11
2023-03-26T21:13:40.724Z,68.00
2023-03-26T21:14:41.169Z,67.88
2023-03-26T21:15:33.594Z,67.97
2023-03-26T21:16:25.613Z,67.96
2023-03-26T21:17:20.821Z,68.40
2023-03-26T21:18:12.727Z,67.49
2023-03-26T21:19:04.578Z,67.35
2023-03-26T21:19:57.739Z,66.77
2023-03-26T21:21:21.800Z,65.23
2023-03-26T21:22:51.737Z,65.55
2023-03-26T21:23:59.102Z,65.58
2023-03-26T21:25:01.332Z,65.46
2023-03-26T21:26:48.709Z,65.24
2023-03-26T21:28:10.668Z,65.09
2023-03-26T21:29:02.805Z,65.69
2023-03-26T21:29:56.048Z,66.23
2023-03-26T21:30:47.736Z,66.74
2023-03-26T21:31:39.937Z,66.13
2023-03-26T21:32:32.031Z,66.06
2023-03-26T21:33:23.532Z,65.90
2023-03-26T21:34:16.986Z,64.56
2023-03-26T21:35:09.520Z,63.89
2023-03-26T21:36:01.718Z,64.29
2023-03-26T21:36:53.821Z,64.27
2023-03-26T21:37:48.437Z,63.17
2023-03-26T21:38:43.420Z,63.45
2023-03-26T21:39:35.281Z,64.43
2023-03-26T21:40:28.108Z,63.77
2023-03-26T21:41:36.388Z,64.19
2023-03-26T21:42:29.180Z,64.09
2023-03-26T21:43:22.138Z,63.86
2023-03-26T21:44:14.764Z,64.10
2023-03-26T21:45:06.955Z,64.17
2023-03-26T21:45:59.170Z,64.39
2023-03-26T21:46:51.031Z,64.44
2023-03-26T21:47:43.476Z,64.40
2023-03-26T21:48:35.527Z,63.88
2023-03-26T21:49:27.680Z,63.41
2023-03-26T21:50:23.311Z,64.02
2023-03-26T21:51:15.215Z,63.24
2023-03-26T21:52:07.224Z,64.23
2023-03-26T21:52:59.385Z,62.41
2023-03-26T21:53:51.159Z,63.08
2023-03-26T21:54:43.093Z,62.89
2023-03-26T21:55:53.976Z,63.07
2023-03-26T21:56:55.494Z,63.06
2023-03-26T21:58:09.927Z,63.69
2023-03-26T21:59:35.950Z,63.01
2023-03-26T22:00:43.793Z,61.70
2023-03-26T22:02:43.564Z,62.12
2023-03-26T22:04:03.532Z,59.88
2023-03-26T22:05:10.241Z,59.56
2023-03-26T22:06:13.393Z,58.89
2023-03-26T22:07:11.835Z,59.84
2023-03-26T22:08:05.112Z,58.43
2023-03-26T22:08:57.317Z,58.85
2023-03-26T22:09:49.015Z,59.08
2023-03-26T22:10:40.420Z,58.42
2023-03-26T22:11:31.940Z,59.72
2023-03-26T22:12:25.497Z,58.97
2023-03-26T22:13:17.154Z,58.72
2023-03-26T22:14:08.786Z,58.03
2023-03-26T22:15:02.067Z,58.40
2023-03-26T22:15:56.328Z,59.41
2023-03-26T22:16:47.822Z,58.55
2023-03-26T22:17:41.578Z,58.84
2023-03-26T22:18:33.982Z,58.58
2023-03-26T22:19:25.553Z,58.81
2023-03-26T22:20:19.576Z,58.56
2023-03-26T22:21:11.087Z,59.26
2023-03-26T22:22:02.930Z,59.06
2023-03-26T22:22:55.122Z,59.96
2023-03-26T22:23:52.499Z,59.70
2023-03-26T22:24:44.038Z,59.91
2023-03-26T22:25:35.847Z,59.21
2023-03-26T22:26:27.474Z,59.61
2023-03-26T22:27:18.958Z,60.13
2023-03-26T22:28:10.562Z,61.45
2023-03-26T22:29:02.086Z,60.16
2023-03-26T22:29:54.434Z,60.32
2023-03-26T22:30:46.700Z,59.81
2023-03-26T22:31:39.231Z,59.86
2023-03-26T22:32:32.802Z,60.30
2023-03-26T22:33:24.736Z,60.46
2023-03-26T22:34:16.620Z,60.38
2023-03-26T22:35:08.541Z,60.78
2023-03-26T22:36:01.305Z,61.25
2023-03-26T22:36:53.427Z,61.55
2023-03-26T22:37:45.937Z,62.26
2023-03-26T22:38:37.473Z,61.71
2023-03-26T22:39:29.042Z,61.82
2023-03-26T22:40:20.624Z,62.11
2023-03-26T22:41:12.985Z,62.74
2023-03-26T22:42:05.135Z,62.96
2023-03-26T22:42:56.915Z,62.43
2023-03-26T22:43:52.096Z,62.32
2023-03-26T22:44:43.591Z,62.58
2023-03-26T22:45:35.318Z,62.71
2023-03-26T22:46:27.577Z,62.70
2023-03-26T22:47:21.728Z,63.31
2023-03-26T22:48:13.260Z,63.28
2023-03-26T22:49:04.814Z,63.45
2023-03-26T22:49:57.175Z,63.71
2023-03-26T22:51:18.369Z,64.00
2023-03-26T22:52:10.159Z,64.08
2023-03-26T22:53:01.588Z,63.83
2023-03-26T22:53:53.010Z,64.27
2023-03-26T22:54:44.479Z,63.97
2023-03-26T22:55:36.310Z,63.94
2023-03-26T22:56:27.843Z,64.08
2023-03-26T22:57:19.422Z,63.97
2023-03-26T22:58:11.288Z,64.32
2023-03-26T22:59:03.882Z,64.47